createdAt,value
2023-05-18T00:02:05.239Z,18.62
2023-05-18T00:04:36.150Z,18.62
2023-05-18T00:07:05.004Z,18.66
2023-05-18T00:09:34.412Z,18.68
2023-05-18T00:12:01.774Z,18.59
2023-05-18T00:14:28.822Z,18.58
2023-05-18T00:16:55.971Z,18.47
2023-05-18T00:19:24.416Z,18.45
2023-05-18T00:21:52.861Z,18.48
2023-05-18T00:24:19.873Z,18.52
2023-05-18T00:26:47.444Z,18.52
2023-05-18T00:29:14.413Z,18.53
2023-05-18T00:31:42.428Z,18.47
2023-05-18T00:34:10.083Z,18.46
2023-05-18T00:36:38.157Z,18.50
2023-05-18T00:39:06.023Z,18.51
2023-05-18T00:41:33.198Z,18.51
2023-05-18T00:44:01.115Z,18.52
2023-05-18T00:46:28.938Z,18.50
2023-05-18T00:48:59.381Z,18.49
2023-05-18T00:51:26.419Z,18.53
2023-05-18T00:53:54.365Z,18.58
2023-05-18T00:56:25.172Z,18.51
2023-05-18T00:58:55.944Z,18.61
2023-05-18T01:01:37.257Z,18.72
2023-05-18T01:04:04.893Z,18.74
2023-05-18T01:06:41.274Z,18.31
2023-05-18T01:09:10.177Z,17.94
2023-05-18T01:11:56.801Z,18.06
2023-05-18T01:14:46.691Z,17.69
2023-05-18T01:17:28.971Z,17.72
2023-05-18T01:20:02.012Z,17.86
2023-05-18T01:22:49.582Z,18.00
2023-05-18T01:25:23.525Z,18.02
2023-05-18T01:27:50.746Z,18.06
2023-05-18T01:30:18.392Z,18.09
2023-05-18T01:32:47.258Z,18.09
2023-05-18T01:35:14.404Z,17.98
2023-05-18T01:37:41.546Z,18.07
2023-05-18T01:40:09.530Z,18.13
2023-05-18T01:42:39.616Z,17.83
2023-05-18T01:45:12.263Z,17.96
2023-05-18T01:47:39.260Z,18.11
2023-05-18T01:50:12.632Z,18.26
2023-05-18T01:52:45.125Z,18.22
2023-05-18T01:55:13.320Z,18.25
2023-05-18T01:57:41.743Z,18.26
2023-05-18T02:00:10.450Z,18.28
2023-05-18T02:02:43.642Z,18.18
2023-05-18T02:05:14.079Z,18.18
2023-05-18T02:07:44.254Z,18.12
2023-05-18T02:10:12.298Z,18.15
2023-05-18T02:12:39.217Z,18.22
2023-05-18T02:15:07.328Z,18.20
2023-05-18T02:17:37.293Z,18.15
2023-05-18T02:20:07.335Z,18.07
2023-05-18T02:22:35.168Z,18.07
2023-05-18T02:25:02.820Z,18.13
2023-05-18T02:27:29.983Z,18.09
2023-05-18T02:29:56.952Z,18.05
2023-05-18T02:32:24.302Z,18.03
2023-05-18T02:34:54.424Z,18.09
2023-05-18T02:37:23.407Z,18.08
2023-05-18T02:39:50.836Z,18.04
2023-05-18T02:42:18.294Z,18.06
2023-05-18T02:44:45.549Z,18.06
2023-05-18T02:47:15.053Z,18.06
2023-05-18T02:49:42.818Z,18.02
2023-05-18T02:52:10.074Z,18.08
2023-05-18T02:54:37.426Z,18.08
2023-05-18T02:57:05.186Z,18.11
2023-05-18T02:59:43.909Z,18.15
2023-05-18T03:02:14.562Z,18.18
2023-05-18T03:04:42.890Z,18.07
2023-05-18T03:07:10.676Z,18.12
2023-05-18T03:09:38.164Z,18.07
2023-05-18T03:12:06.858Z,18.04
2023-05-18T03:14:34.439Z,18.06
2023-05-18T03:17:01.833Z,18.04
2023-05-18T03:19:29.404Z,18.09
2023-05-18T03:21:58.118Z,18.13
2023-05-18T03:24:26.761Z,18.12
2023-05-18T03:26:55.456Z,18.17
2023-05-18T03:29:23.431Z,18.12
2023-05-18T03:31:51.443Z,18.13
2023-05-18T03:34:18.848Z,18.12
2023-05-18T03:36:47.552Z,18.14
2023-05-18T03:39:15.090Z,18.18
2023-05-18T03:41:42.644Z,18.19
2023-05-18T03:44:10.670Z,17.58
2023-05-18T03:46:40.350Z,17.67
2023-05-18T03:49:08.600Z,17.96
2023-05-18T03:51:39.324Z,18.00
2023-05-18T03:54:06.591Z,18.04
2023-05-18T03:56:33.734Z,18.13
2023-05-18T03:59:03.748Z,18.17
2023-05-18T04:01:34.786Z,18.22
2023-05-18T04:07:22.295Z,18.28
2023-05-18T04:09:49.675Z,18.28
2023-05-18T04:12:41.770Z,18.33
2023-05-18T04:15:10.880Z,18.37
2023-05-18T04:17:39.905Z,18.43
2023-05-18T04:20:13.239Z,18.49
2023-05-18T04:22:46.579Z,18.52
2023-05-18T04:25:17.520Z,18.56
2023-05-18T04:27:50.528Z,18.59
2023-05-18T04:30:19.205Z,18.60
2023-05-18T04:32:47.494Z,18.60
2023-05-18T04:35:15.602Z,18.63
2023-05-18T04:37:43.339Z,18.72
2023-05-18T04:40:17.695Z,18.78
2023-05-18T04:42:48.626Z,18.80
2023-05-18T04:45:23.047Z,18.82
2023-05-18T04:47:54.333Z,18.86
2023-05-18T04:50:25.659Z,18.93
2023-05-18T04:52:53.098Z,18.96
2023-05-18T04:55:29.499Z,18.95
2023-05-18T04:58:05.201Z,18.97
2023-05-18T05:00:32.266Z,19.05
2023-05-18T05:02:59.770Z,19.10
2023-05-18T05:05:27.439Z,19.17
2023-05-18T05:07:55.963Z,19.20
2023-05-18T05:10:23.223Z,19.17
2023-05-18T05:12:50.790Z,19.20
2023-05-18T05:15:18.778Z,19.29
2023-05-18T05:17:49.233Z,19.28
2023-05-18T05:20:16.766Z,19.35
2023-05-18T05:22:43.877Z,19.44
2023-05-18T05:25:13.043Z,19.54
2023-05-18T05:27:40.192Z,19.62
2023-05-18T05:30:10.249Z,19.69
2023-05-18T05:32:38.365Z,19.79
2023-05-18T05:35:07.392Z,19.92
2023-05-18T05:37:35.814Z,20.06
2023-05-18T05:40:06.195Z,20.10
2023-05-18T05:42:36.816Z,20.18
2023-05-18T05:45:03.968Z,20.30
2023-05-18T05:47:34.211Z,20.37
2023-05-18T05:50:01.354Z,20.40
2023-05-18T05:52:29.180Z,20.48
2023-05-18T05:54:56.747Z,20.36
2023-05-18T05:57:25.969Z,20.31
2023-05-18T05:59:53.942Z,20.36
2023-05-18T06:02:21.405Z,20.36
2023-05-18T06:04:49.304Z,20.40
2023-05-18T06:07:16.308Z,20.37
2023-05-18T06:10:19.126Z,20.47
2023-05-18T06:12:46.367Z,20.63
2023-05-18T06:15:13.933Z,20.71
2023-05-18T06:17:41.387Z,20.80
2023-05-18T06:20:09.339Z,20.87
2023-05-18T06:22:37.131Z,20.96
2023-05-18T06:25:22.594Z,21.09
2023-05-18T06:28:10.839Z,21.26
2023-05-18T06:30:44.234Z,21.38
2023-05-18T06:33:21.520Z,21.43
2023-05-18T06:35:49.206Z,21.49
2023-05-18T06:38:16.534Z,21.63
2023-05-18T06:40:43.570Z,21.79
2023-05-18T06:43:10.512Z,21.87
2023-05-18T06:45:46.325Z,21.90
2023-05-18T06:51:47.212Z,22.04
2023-05-18T06:54:14.841Z,22.03
2023-05-18T06:56:41.992Z,22.11
2023-05-18T06:59:08.964Z,22.26
2023-05-18T07:01:36.199Z,22.38
2023-05-18T07:04:04.347Z,22.46
2023-05-18T07:06:31.404Z,22.36
2023-05-18T07:08:58.659Z,21.87
2023-05-18T07:11:29.372Z,21.87
2023-05-18T07:13:56.877Z,21.97
2023-05-18T07:16:24.144Z,22.02
2023-05-18T07:18:51.406Z,22.01
2023-05-18T07:21:18.920Z,22.17
2023-05-18T07:23:46.314Z,22.32
2023-05-18T07:26:17.526Z,22.48
2023-05-18T07:28:45.385Z,22.58
2023-05-18T07:31:21.486Z,22.68
2023-05-18T07:33:49.085Z,22.74
2023-05-18T07:36:16.507Z,22.84
2023-05-18T07:38:44.390Z,22.96
2023-05-18T07:41:14.813Z,23.11
2023-05-18T07:43:46.089Z,23.25
2023-05-18T07:46:14.854Z,23.13
2023-05-18T07:48:46.537Z,23.20
2023-05-18T07:51:21.233Z,23.38
2023-05-18T07:53:50.083Z,23.44
2023-05-18T07:56:18.953Z,23.43
2023-05-18T07:58:46.701Z,23.55
2023-05-18T08:01:14.809Z,23.60
2023-05-18T08:03:42.985Z,23.62
2023-05-18T08:06:11.056Z,23.67
2023-05-18T08:08:40.230Z,23.65
2023-05-18T08:11:10.956Z,23.61
2023-05-18T08:13:38.562Z,23.56
2023-05-18T08:16:54.992Z,23.59
2023-05-18T08:19:22.897Z,23.58
2023-05-18T08:21:51.107Z,23.59
2023-05-18T08:24:20.568Z,23.61
2023-05-18T08:26:48.671Z,23.67
2023-05-18T08:32:38.435Z,23.73
2023-05-18T08:35:06.586Z,23.75
2023-05-18T08:37:33.558Z,23.83
2023-05-18T08:40:00.491Z,23.86
2023-05-18T08:43:04.381Z,23.72
2023-05-18T08:45:46.216Z,23.14
2023-05-18T08:48:13.494Z,23.19
2023-05-18T08:50:42.207Z,23.30
2023-05-18T08:53:10.226Z,23.40
2023-05-18T08:55:37.583Z,23.56
2023-05-18T08:58:07.302Z,23.78
2023-05-18T09:00:35.070Z,23.98
2023-05-18T09:03:04.345Z,24.09
2023-05-18T09:05:31.899Z,24.17
2023-05-18T09:07:59.163Z,24.34
2023-05-18T09:10:26.215Z,24.43
2023-05-18T09:12:53.403Z,24.63
2023-05-18T09:19:29.744Z,24.49
2023-05-18T09:21:56.988Z,24.42
2023-05-18T09:24:25.035Z,24.47
2023-05-18T09:26:52.525Z,24.66
2023-05-18T09:29:21.452Z,24.60
2023-05-18T09:31:48.634Z,24.59
2023-05-18T09:34:16.055Z,24.55
2023-05-18T09:36:46.712Z,24.57
2023-05-18T09:39:13.900Z,24.63
2023-05-18T09:41:41.354Z,24.79
2023-05-18T09:44:11.469Z,24.95
2023-05-18T09:46:43.826Z,25.04
2023-05-18T09:49:12.333Z,25.03
2023-05-18T09:51:39.781Z,25.07
2023-05-18T09:54:08.522Z,25.14
2023-05-18T09:56:36.957Z,25.23
2023-05-18T09:59:11.488Z,25.31
2023-05-18T10:01:55.315Z,25.33
2023-05-18T10:04:22.872Z,25.39
2023-05-18T10:06:50.510Z,25.37
2023-05-18T10:09:18.219Z,25.42
2023-05-18T10:11:45.269Z,25.49
2023-05-18T10:14:12.415Z,25.61
2023-05-18T10:16:41.221Z,25.72
2023-05-18T10:19:08.787Z,25.82
2023-05-18T10:21:36.124Z,25.84
2023-05-18T10:24:04.691Z,25.86
2023-05-18T10:26:32.071Z,25.93
2023-05-18T10:28:59.419Z,25.91
2023-05-18T10:31:26.598Z,25.96
2023-05-18T10:33:54.325Z,26.09
2023-05-18T10:36:25.472Z,26.31
2023-05-18T12:24:58.361Z,26.01
2023-05-18T12:27:26.682Z,26.03
2023-05-18T12:29:54.258Z,26.13
2023-05-18T12:32:22.914Z,26.15
2023-05-18T12:34:52.850Z,26.25
2023-05-18T12:37:24.016Z,26.24
2023-05-18T12:39:55.078Z,26.23
2023-05-18T12:42:22.922Z,26.18
2023-05-18T12:44:51.068Z,26.05
2023-05-18T12:47:18.279Z,26.06
2023-05-18T12:49:51.920Z,25.99
2023-05-18T12:52:21.344Z,25.95
2023-05-18T12:54:59.572Z,25.99
2023-05-18T12:57:27.846Z,26.19
2023-05-18T12:59:54.965Z,26.41
2023-05-18T13:02:30.445Z,26.64
2023-05-18T13:05:11.413Z,26.82
2023-05-18T13:07:43.690Z,26.94
2023-05-18T13:10:16.862Z,27.11
2023-05-18T13:12:50.750Z,27.24
2023-05-18T13:15:22.806Z,27.31
2023-05-18T13:17:52.978Z,27.32
2023-05-18T13:20:20.285Z,27.34
2023-05-18T13:22:47.684Z,27.20
2023-05-18T13:25:14.624Z,26.94
2023-05-18T13:27:41.675Z,26.74
2023-05-18T13:30:09.306Z,26.58
2023-05-18T13:32:36.573Z,26.29
2023-05-18T13:35:04.120Z,26.14
2023-05-18T13:37:31.454Z,26.05
2023-05-18T13:39:59.312Z,25.99
2023-05-18T13:42:26.360Z,25.96
2023-05-18T13:44:53.310Z,25.89
2023-05-18T13:47:20.446Z,25.82
2023-05-18T13:49:47.474Z,25.74
2023-05-18T13:52:14.455Z,25.70
2023-05-18T13:54:43.751Z,25.66
2023-05-18T13:57:11.688Z,25.58
2023-05-18T13:59:43.070Z,25.57
2023-05-18T14:02:11.569Z,25.48
2023-05-18T14:04:39.390Z,25.53
2023-05-18T14:07:06.859Z,25.61
2023-05-18T14:09:36.860Z,25.73
2023-05-18T14:12:05.938Z,25.89
2023-05-18T14:14:33.817Z,26.03
2023-05-18T14:30:24.293Z,27.26
2023-05-18T14:32:51.574Z,27.53
2023-05-18T14:35:18.799Z,27.83
2023-05-18T14:37:46.071Z,28.05
2023-05-18T14:40:13.199Z,28.17
2023-05-18T14:42:40.243Z,28.28
2023-05-18T14:45:08.234Z,28.36
2023-05-18T14:47:35.600Z,28.32
2023-05-18T14:50:03.033Z,28.32
2023-05-18T14:52:30.174Z,28.37
2023-05-18T14:54:57.331Z,28.48
2023-05-18T14:57:26.655Z,28.51
2023-05-18T14:59:54.285Z,28.69
2023-05-18T15:02:21.386Z,28.86
2023-05-18T15:04:48.485Z,28.79
2023-05-18T15:07:15.441Z,28.80
2023-05-18T15:09:42.410Z,28.83
2023-05-18T15:12:10.004Z,28.67
2023-05-18T15:14:38.243Z,28.41
2023-05-18T15:17:07.489Z,28.31
2023-05-18T15:19:34.683Z,27.99
2023-05-18T15:22:02.224Z,27.65
2023-05-18T15:24:29.269Z,27.38
2023-05-18T15:26:56.384Z,27.22
2023-05-18T15:29:23.784Z,26.99
2023-05-18T15:31:51.369Z,26.76
2023-05-18T15:34:18.852Z,26.50
2023-05-18T15:36:46.564Z,26.45
2023-05-18T15:39:13.529Z,26.42
2023-05-18T15:41:40.836Z,26.36
2023-05-18T15:44:07.900Z,26.25
2023-05-18T15:46:35.999Z,26.17
2023-05-18T15:49:04.133Z,26.42
2023-05-18T15:51:31.773Z,26.22
2023-05-18T15:53:58.764Z,26.07
2023-05-18T15:56:26.138Z,26.07
2023-05-18T15:58:54.903Z,26.18
2023-05-18T16:01:22.211Z,26.08
2023-05-18T16:03:49.389Z,26.06
2023-05-18T16:06:16.484Z,26.09
2023-05-18T16:08:46.010Z,26.17
2023-05-18T16:11:13.126Z,26.09
2023-05-18T16:13:40.068Z,26.07
2023-05-18T16:16:08.989Z,26.06
2023-05-18T16:18:37.006Z,26.08
2023-05-18T16:21:04.215Z,26.13
2023-05-18T16:23:31.798Z,26.09
2023-05-18T16:26:00.505Z,25.92
2023-05-18T16:28:29.960Z,25.94
2023-05-18T16:30:57.013Z,25.87
2023-05-18T16:33:25.849Z,25.65
2023-05-18T16:35:53.768Z,25.47
2023-05-18T16:38:20.920Z,25.36
2023-05-18T16:40:48.108Z,25.26
2023-05-18T16:43:15.085Z,25.34
2023-05-18T16:45:42.707Z,25.23
2023-05-18T16:48:09.786Z,25.16
2023-05-18T16:50:37.804Z,25.16
2023-05-18T16:53:04.882Z,25.15
2023-05-18T16:55:31.944Z,24.89
2023-05-18T16:57:59.106Z,24.68
2023-05-18T17:00:26.403Z,24.35
2023-05-18T17:02:53.538Z,24.11
2023-05-18T17:05:24.004Z,23.90
2023-05-18T17:07:51.436Z,23.76
2023-05-18T17:10:18.689Z,23.65
2023-05-18T17:12:46.076Z,23.49
2023-05-18T17:15:13.218Z,23.24
2023-05-18T17:17:42.131Z,23.02
2023-05-18T17:20:10.940Z,22.93
2023-05-18T17:22:38.291Z,22.91
2023-05-18T17:25:06.051Z,22.67
2023-05-18T17:27:33.000Z,22.59
2023-05-18T17:30:00.430Z,22.51
2023-05-18T17:32:27.790Z,22.32
2023-05-18T17:34:54.851Z,22.22
2023-05-18T17:37:22.133Z,22.17
2023-05-18T17:39:49.136Z,22.08
2023-05-18T17:42:16.367Z,21.96
2023-05-18T17:44:44.217Z,21.94
2023-05-18T17:47:12.854Z,22.23
2023-05-18T17:49:39.965Z,21.91
2023-05-18T17:52:07.219Z,21.62
2023-05-18T17:54:34.303Z,21.46
2023-05-18T17:57:01.835Z,21.40
2023-05-18T17:59:28.824Z,21.34
2023-05-18T18:01:55.768Z,21.32
2023-05-18T18:04:23.094Z,21.30
2023-05-18T18:06:52.545Z,21.38
2023-05-18T18:09:19.721Z,21.25
2023-05-18T18:11:46.665Z,21.28
2023-05-18T18:14:17.317Z,21.24
2023-05-18T18:16:44.524Z,21.09
2023-05-18T18:19:12.084Z,21.09
2023-05-18T18:21:39.245Z,21.02
2023-05-18T18:24:06.537Z,21.04
2023-05-18T18:26:38.894Z,20.93
2023-05-18T18:29:06.641Z,20.80
2023-05-18T18:31:33.773Z,20.61
2023-05-18T18:34:01.042Z,20.58
2023-05-18T18:36:28.397Z,20.44
2023-05-18T18:38:55.439Z,20.36
2023-05-18T18:41:22.497Z,20.26
2023-05-18T18:43:49.645Z,20.23
2023-05-18T18:46:16.665Z,20.09
2023-05-18T18:48:43.835Z,20.07
2023-05-18T18:51:10.750Z,20.19
2023-05-18T18:53:38.039Z,20.23
2023-05-18T18:56:05.515Z,19.94
2023-05-18T18:58:32.449Z,19.91
2023-05-18T19:00:59.396Z,19.94
2023-05-18T19:03:27.229Z,19.77
2023-05-18T19:05:54.174Z,19.63
2023-05-18T19:08:21.442Z,19.55
2023-05-18T19:10:48.599Z,19.56
2023-05-18T19:13:15.738Z,19.56
2023-05-18T19:15:42.785Z,19.55
2023-05-18T19:18:09.860Z,19.42
2023-05-18T19:20:37.006Z,19.43
2023-05-18T19:23:05.892Z,19.36
2023-05-18T19:25:33.168Z,19.32
2023-05-18T19:28:00.684Z,19.35
2023-05-18T19:30:28.184Z,19.34
2023-05-18T19:33:01.260Z,19.42
2023-05-18T19:35:28.488Z,19.36
2023-05-18T19:37:55.475Z,19.26
2023-05-18T19:40:22.987Z,19.21
2023-05-18T19:42:50.399Z,19.23
2023-05-18T19:45:17.425Z,19.18
2023-05-18T19:47:44.379Z,18.82
2023-05-18T19:50:11.880Z,18.82
2023-05-18T19:52:38.946Z,18.96
2023-05-18T19:55:06.686Z,18.83
2023-05-18T19:57:33.838Z,18.50
2023-05-18T20:00:01.644Z,18.49
2023-05-18T20:02:28.645Z,18.48
2023-05-18T20:04:55.673Z,18.55
2023-05-18T20:07:22.941Z,18.52
2023-05-18T20:09:53.152Z,18.55
2023-05-18T20:12:20.415Z,18.39
2023-05-18T20:14:47.598Z,18.29
2023-05-18T20:17:15.363Z,18.24
2023-05-18T20:19:49.857Z,18.33
2023-05-18T20:22:17.741Z,18.32
2023-05-18T20:24:44.843Z,18.33
2023-05-18T20:27:16.004Z,18.23
2023-05-18T20:29:43.159Z,18.01
2023-05-18T20:32:10.302Z,18.06
2023-05-18T20:34:37.720Z,18.14
2023-05-18T20:37:05.762Z,18.12
2023-05-18T20:39:33.110Z,18.07
2023-05-18T20:42:00.343Z,17.99
2023-05-18T20:44:28.939Z,17.81
2023-05-18T20:46:55.975Z,17.79
2023-05-18T20:49:25.164Z,18.08
2023-05-18T20:51:52.259Z,18.15
2023-05-18T20:54:21.429Z,18.15
2023-05-18T20:56:48.903Z,18.18
2023-05-18T20:59:16.300Z,18.20
2023-05-18T21:01:43.516Z,18.17
2023-05-18T21:04:12.826Z,18.13
2023-05-18T21:06:41.168Z,18.11
2023-05-18T21:09:08.425Z,18.08
2023-05-18T21:11:35.798Z,18.09
2023-05-18T21:14:03.103Z,18.09
2023-05-18T21:16:30.169Z,18.09
2023-05-18T21:18:57.485Z,18.06
2023-05-18T21:21:24.584Z,17.98
2023-05-18T21:23:51.587Z,17.95
2023-05-18T21:26:18.645Z,17.97
2023-05-18T21:28:45.797Z,17.86
2023-05-18T21:31:12.800Z,17.76
2023-05-18T21:33:40.042Z,17.81
2023-05-18T21:36:09.237Z,17.79
2023-05-18T21:38:36.176Z,17.68
2023-05-18T21:41:03.351Z,17.36
2023-05-18T21:43:30.309Z,17.32
2023-05-18T21:45:57.244Z,17.44
2023-05-18T21:48:24.316Z,17.77
2023-05-18T21:50:51.231Z,17.81
2023-05-18T21:53:18.515Z,17.80
2023-05-18T21:55:45.465Z,17.78
2023-05-18T21:58:12.506Z,17.74
2023-05-18T22:00:39.840Z,17.67
2023-05-18T22:03:06.903Z,17.66
2023-05-18T22:05:33.966Z,17.62
2023-05-18T22:08:00.910Z,17.57
2023-05-18T22:10:28.261Z,17.48
2023-05-18T22:12:55.262Z,17.12
2023-05-18T22:15:22.936Z,16.94
2023-05-18T22:17:50.137Z,16.91
2023-05-18T22:20:17.356Z,17.00
2023-05-18T22:22:44.554Z,16.66
2023-05-18T22:25:12.840Z,16.40
2023-05-18T22:27:39.795Z,16.44
2023-05-18T22:30:08.170Z,16.35
2023-05-18T22:32:35.345Z,16.22
2023-05-18T22:35:02.935Z,15.79
2023-05-18T22:37:29.993Z,15.66
2023-05-18T22:39:56.993Z,15.72
2023-05-18T22:42:24.190Z,15.64
2023-05-18T22:44:51.506Z,15.58
2023-05-18T22:47:21.586Z,15.56
2023-05-18T22:49:49.385Z,15.60
2023-05-18T22:52:18.048Z,15.68
2023-05-18T22:54:45.018Z,15.61
2023-05-18T22:57:12.462Z,15.63
2023-05-18T22:59:39.613Z,15.61
2023-05-18T23:02:06.791Z,15.56
2023-05-18T23:04:34.317Z,15.53
2023-05-18T23:07:02.041Z,15.41
2023-05-18T23:09:30.792Z,15.37
2023-05-18T23:11:59.702Z,15.42
2023-05-18T23:14:32.583Z,15.20
2023-05-18T23:17:03.818Z,15.05
2023-05-18T23:19:30.938Z,15.12
2023-05-18T23:21:57.986Z,15.04
2023-05-18T23:24:25.028Z,15.12
2023-05-18T23:26:51.922Z,15.05
2023-05-18T23:29:19.024Z,15.04
2023-05-18T23:31:46.275Z,14.89
2023-05-18T23:34:13.637Z,14.91
2023-05-18T23:36:43.229Z,14.93
2023-05-18T23:39:10.531Z,15.01
2023-05-18T23:41:37.953Z,15.05
2023-05-18T23:44:06.619Z,14.99
2023-05-18T23:46:34.565Z,14.94
2023-05-18T23:49:02.054Z,15.00
2023-05-18T23:51:32.179Z,15.10
2023-05-18T23:53:59.639Z,15.17
2023-05-18T23:56:27.101Z,15.23
2023-05-18T23:58:54.533Z,15.21
